sensor_id;sensor_type;location;lat;lon;timestamp;P1;durP1;ratioP1;P2;durP2;ratioP2
35835;SDS011;21955;50.580;7.228;2022-12-18T00:02:14;44.45;;;14.88;;
35835;SDS011;21955;50.580;7.228;2022-12-18T00:04:41;39.78;;;14.27;;
35835;SDS011;21955;50.580;7.228;2022-12-18T00:07:10;47.70;;;14.40;;
35835;SDS011;21955;50.580;7.228;2022-12-18T00:09:37;44.97;;;15.10;;
35835;SDS011;21955;50.580;7.228;2022-12-18T00:12:04;48.83;;;16.40;;
35835;SDS011;21955;50.580;7.228;2022-12-18T00:14:31;43.65;;;14.70;;
35835;SDS011;21955;50.580;7.228;2022-12-18T00:16:59;46.00;;;14.73;;
35835;SDS011;21955;50.580;7.228;2022-12-18T00:19:26;52.67;;;16.02;;
35835;SDS011;21955;50.580;7.228;2022-12-18T00:21:54;48.45;;;15.38;;
35835;SDS011;21955;50.580;7.228;2022-12-18T00:24:23;50.28;;;15.45;;
35835;SDS011;21955;50.580;7.228;2022-12-18T00:26:50;47.88;;;15.65;;
35835;SDS011;21955;50.580;7.228;2022-12-18T00:29:17;47.70;;;14.85;;
35835;SDS011;21955;50.580;7.228;2022-12-18T00:31:45;55.13;;;15.87;;
35835;SDS011;21955;50.580;7.228;2022-12-18T00:34:12;45.63;;;14.98;;
35835;SDS011;21955;50.580;7.228;2022-12-18T00:36:40;49.80;;;17.25;;
35835;SDS011;21955;50.580;7.228;2022-12-18T00:39:08;46.33;;;15.50;;
35835;SDS011;21955;50.580;7.228;2022-12-18T00:41:38;40.00;;;13.55;;
35835;SDS011;21955;50.580;7.228;2022-12-18T00:44:22;48.30;;;14.50;;
35835;SDS011;21955;50.580;7.228;2022-12-18T00:46:49;50.00;;;16.02;;
35835;SDS011;21955;50.580;7.228;2022-12-18T00:49:18;43.72;;;14.27;;
35835;SDS011;21955;50.580;7.228;2022-12-18T00:51:45;45.45;;;13.82;;
35835;SDS011;21955;50.580;7.228;2022-12-18T00:54:12;48.42;;;15.32;;
35835;SDS011;21955;50.580;7.228;2022-12-18T00:56:41;47.78;;;15.63;;
35835;SDS011;21955;50.580;7.228;2022-12-18T00:59:08;41.13;;;14.07;;
35835;SDS011;21955;50.580;7.228;2022-12-18T01:01:35;45.60;;;13.70;;
35835;SDS011;21955;50.580;7.228;2022-12-18T01:04:03;50.33;;;15.57;;
35835;SDS011;21955;50.580;7.228;2022-12-18T01:06:30;45.65;;;14.50;;
35835;SDS011;21955;50.580;7.228;2022-12-18T01:08:57;46.17;;;12.98;;
35835;SDS011;21955;50.580;7.228;2022-12-18T01:11:24;55.47;;;16.20;;
35835;SDS011;21955;50.580;7.228;2022-12-18T01:13:53;49.13;;;15.65;;
35835;SDS011;21955;50.580;7.228;2022-12-18T01:16:20;47.92;;;14.95;;
35835;SDS011;21955;50.580;7.228;2022-12-18T01:18:50;43.05;;;14.10;;
35835;SDS011;21955;50.580;7.228;2022-12-18T01:21:17;44.27;;;15.17;;
35835;SDS011;21955;50.580;7.228;2022-12-18T01:23:45;41.55;;;13.93;;
35835;SDS011;21955;50.580;7.228;2022-12-18T01:26:13;43.83;;;13.43;;
35835;SDS011;21955;50.580;7.228;2022-12-18T01:28:41;42.90;;;14.17;;
35835;SDS011;21955;50.580;7.228;2022-12-18T01:31:14;43.90;;;13.43;;
35835;SDS011;21955;50.580;7.228;2022-12-18T01:33:41;39.95;;;12.75;;
35835;SDS011;21955;50.580;7.228;2022-12-18T01:36:14;43.42;;;14.13;;
35835;SDS011;21955;50.580;7.228;2022-12-18T01:38:43;41.03;;;13.80;;
35835;SDS011;21955;50.580;7.228;2022-12-18T01:41:12;42.45;;;13.88;;
35835;SDS011;21955;50.580;7.228;2022-12-18T01:43:41;37.70;;;12.50;;
35835;SDS011;21955;50.580;7.228;2022-12-18T01:46:08;35.97;;;13.15;;
35835;SDS011;21955;50.580;7.228;2022-12-18T01:48:37;38.47;;;12.50;;
35835;SDS011;21955;50.580;7.228;2022-12-18T01:51:06;44.50;;;14.30;;
35835;SDS011;21955;50.580;7.228;2022-12-18T01:53:34;40.42;;;13.90;;
35835;SDS011;21955;50.580;7.228;2022-12-18T01:56:02;39.42;;;13.35;;
35835;SDS011;21955;50.580;7.228;2022-12-18T01:58:30;44.80;;;14.32;;
35835;SDS011;21955;50.580;7.228;2022-12-18T02:01:01;44.50;;;14.50;;
35835;SDS011;21955;50.580;7.228;2022-12-18T02:03:28;45.08;;;13.88;;
35835;SDS011;21955;50.580;7.228;2022-12-18T02:05:57;47.08;;;14.80;;
35835;SDS011;21955;50.580;7.228;2022-12-18T02:08:28;39.40;;;13.00;;
35835;SDS011;21955;50.580;7.228;2022-12-18T02:10:59;44.72;;;14.68;;
35835;SDS011;21955;50.580;7.228;2022-12-18T02:13:30;39.90;;;13.07;;
35835;SDS011;21955;50.580;7.228;2022-12-18T02:16:00;38.47;;;13.30;;
35835;SDS011;21955;50.580;7.228;2022-12-18T02:18:30;46.75;;;14.73;;
35835;SDS011;21955;50.580;7.228;2022-12-18T02:21:02;42.20;;;14.52;;
35835;SDS011;21955;50.580;7.228;2022-12-18T02:23:39;45.85;;;15.20;;
35835;SDS011;21955;50.580;7.228;2022-12-18T02:26:13;43.22;;;14.10;;
35835;SDS011;21955;50.580;7.228;2022-12-18T02:28:43;47.33;;;14.95;;
35835;SDS011;21955;50.580;7.228;2022-12-18T02:31:13;44.80;;;14.52;;
35835;SDS011;21955;50.580;7.228;2022-12-18T02:33:41;39.88;;;13.30;;
35835;SDS011;21955;50.580;7.228;2022-12-18T02:36:10;43.65;;;14.32;;
35835;SDS011;21955;50.580;7.228;2022-12-18T02:38:39;41.97;;;14.25;;
35835;SDS011;21955;50.580;7.228;2022-12-18T02:41:06;43.55;;;13.18;;
35835;SDS011;21955;50.580;7.228;2022-12-18T02:43:35;41.28;;;14.10;;
35835;SDS011;21955;50.580;7.228;2022-12-18T02:48:44;40.15;;;13.05;;
35835;SDS011;21955;50.580;7.228;2022-12-18T02:51:14;41.60;;;14.15;;
35835;SDS011;21955;50.580;7.228;2022-12-18T02:53:44;44.60;;;14.55;;
35835;SDS011;21955;50.580;7.228;2022-12-18T02:56:13;40.78;;;12.63;;
35835;SDS011;21955;50.580;7.228;2022-12-18T02:58:44;43.80;;;14.02;;
35835;SDS011;21955;50.580;7.228;2022-12-18T03:01:15;41.28;;;13.27;;
35835;SDS011;21955;50.580;7.228;2022-12-18T03:03:46;38.83;;;12.32;;
35835;SDS011;21955;50.580;7.228;2022-12-18T03:06:17;49.20;;;13.75;;
35835;SDS011;21955;50.580;7.228;2022-12-18T03:08:46;44.65;;;13.70;;
35835;SDS011;21955;50.580;7.228;2022-12-18T03:11:16;42.88;;;14.00;;
35835;SDS011;21955;50.580;7.228;2022-12-18T03:14:05;43.07;;;14.30;;
35835;SDS011;21955;50.580;7.228;2022-12-18T03:16:33;43.35;;;13.93;;
35835;SDS011;21955;50.580;7.228;2022-12-18T03:19:03;42.53;;;13.38;;
35835;SDS011;21955;50.580;7.228;2022-12-18T03:21:32;44.63;;;14.02;;
35835;SDS011;21955;50.580;7.228;2022-12-18T03:24:01;42.08;;;12.85;;
35835;SDS011;21955;50.580;7.228;2022-12-18T03:26:30;42.03;;;13.23;;
35835;SDS011;21955;50.580;7.228;2022-12-18T03:28:59;36.90;;;13.15;;
35835;SDS011;21955;50.580;7.228;2022-12-18T03:31:28;43.40;;;13.13;;
35835;SDS011;21955;50.580;7.228;2022-12-18T03:33:57;34.50;;;12.15;;
35835;SDS011;21955;50.580;7.228;2022-12-18T03:36:25;38.85;;;13.40;;
35835;SDS011;21955;50.580;7.228;2022-12-18T03:38:53;41.55;;;13.65;;
35835;SDS011;21955;50.580;7.228;2022-12-18T03:41:23;39.60;;;13.27;;
35835;SDS011;21955;50.580;7.228;2022-12-18T03:43:53;40.28;;;13.15;;
35835;SDS011;21955;50.580;7.228;2022-12-18T03:46:24;35.35;;;11.65;;
35835;SDS011;21955;50.580;7.228;2022-12-18T03:48:55;41.38;;;13.82;;
35835;SDS011;21955;50.580;7.228;2022-12-18T03:51:24;42.25;;;13.48;;
35835;SDS011;21955;50.580;7.228;2022-12-18T03:53:54;38.58;;;12.73;;
35835;SDS011;21955;50.580;7.228;2022-12-18T03:56:23;39.13;;;13.32;;
35835;SDS011;21955;50.580;7.228;2022-12-18T03:58:50;44.72;;;14.70;;
35835;SDS011;21955;50.580;7.228;2022-12-18T04:01:19;39.97;;;12.95;;
35835;SDS011;21955;50.580;7.228;2022-12-18T04:03:47;42.25;;;13.68;;
35835;SDS011;21955;50.580;7.228;2022-12-18T04:06:17;39.50;;;14.57;;
35835;SDS011;21955;50.580;7.228;2022-12-18T04:08:44;35.50;;;13.13;;
35835;SDS011;21955;50.580;7.228;2022-12-18T04:11:12;44.35;;;13.57;;
35835;SDS011;21955;50.580;7.228;2022-12-18T04:13:39;39.40;;;12.63;;
35835;SDS011;21955;50.580;7.228;2022-12-18T04:16:09;41.10;;;14.18;;
35835;SDS011;21955;50.580;7.228;2022-12-18T04:18:36;44.67;;;14.43;;
35835;SDS011;21955;50.580;7.228;2022-12-18T04:21:04;43.00;;;14.60;;
35835;SDS011;21955;50.580;7.228;2022-12-18T04:23:32;38.03;;;13.37;;
35835;SDS011;21955;50.580;7.228;2022-12-18T04:26:00;42.10;;;14.02;;
35835;SDS011;21955;50.580;7.228;2022-12-18T04:28:27;38.42;;;12.60;;
35835;SDS011;21955;50.580;7.228;2022-12-18T04:30:55;38.70;;;12.82;;
35835;SDS011;21955;50.580;7.228;2022-12-18T04:33:22;41.88;;;12.80;;
35835;SDS011;21955;50.580;7.228;2022-12-18T04:35:49;38.78;;;13.25;;
35835;SDS011;21955;50.580;7.228;2022-12-18T04:38:16;49.20;;;14.63;;
35835;SDS011;21955;50.580;7.228;2022-12-18T04:40:45;36.70;;;12.43;;
35835;SDS011;21955;50.580;7.228;2022-12-18T04:43:12;44.85;;;14.00;;
35835;SDS011;21955;50.580;7.228;2022-12-18T04:45:39;37.45;;;12.75;;
35835;SDS011;21955;50.580;7.228;2022-12-18T04:48:06;38.67;;;12.85;;
35835;SDS011;21955;50.580;7.228;2022-12-18T04:50:33;42.90;;;14.15;;
35835;SDS011;21955;50.580;7.228;2022-12-18T04:53:01;40.58;;;13.63;;
35835;SDS011;21955;50.580;7.228;2022-12-18T04:55:28;43.08;;;14.10;;
35835;SDS011;21955;50.580;7.228;2022-12-18T04:57:57;45.72;;;13.82;;
35835;SDS011;21955;50.580;7.228;2022-12-18T05:00:24;40.90;;;13.40;;
35835;SDS011;21955;50.580;7.228;2022-12-18T05:02:51;41.72;;;13.60;;
35835;SDS011;21955;50.580;7.228;2022-12-18T05:05:18;45.22;;;14.13;;
35835;SDS011;21955;50.580;7.228;2022-12-18T05:07:45;48.20;;;14.00;;
35835;SDS011;21955;50.580;7.228;2022-12-18T05:10:14;39.05;;;13.00;;
35835;SDS011;21955;50.580;7.228;2022-12-18T05:12:41;30.23;;;10.50;;
35835;SDS011;21955;50.580;7.228;2022-12-18T05:15:24;41.63;;;14.13;;
35835;SDS011;21955;50.580;7.228;2022-12-18T05:17:51;41.30;;;12.90;;
35835;SDS011;21955;50.580;7.228;2022-12-18T05:20:18;35.25;;;12.50;;
35835;SDS011;21955;50.580;7.228;2022-12-18T05:22:46;41.45;;;13.80;;
35835;SDS011;21955;50.580;7.228;2022-12-18T05:25:13;39.13;;;13.33;;
35835;SDS011;21955;50.580;7.228;2022-12-18T05:27:40;42.10;;;13.85;;
35835;SDS011;21955;50.580;7.228;2022-12-18T05:30:08;40.70;;;12.82;;
35835;SDS011;21955;50.580;7.228;2022-12-18T05:32:37;40.53;;;13.85;;
35835;SDS011;21955;50.580;7.228;2022-12-18T05:35:04;32.95;;;11.93;;
35835;SDS011;21955;50.580;7.228;2022-12-18T05:37:32;33.53;;;11.15;;
35835;SDS011;21955;50.580;7.228;2022-12-18T05:39:59;37.85;;;12.27;;
35835;SDS011;21955;50.580;7.228;2022-12-18T05:42:26;39.45;;;13.20;;
35835;SDS011;21955;50.580;7.228;2022-12-18T05:44:53;35.30;;;12.03;;
35835;SDS011;21955;50.580;7.228;2022-12-18T05:47:21;35.15;;;12.23;;
35835;SDS011;21955;50.580;7.228;2022-12-18T05:49:49;31.70;;;11.35;;
35835;SDS011;21955;50.580;7.228;2022-12-18T05:52:16;34.40;;;12.27;;
35835;SDS011;21955;50.580;7.228;2022-12-18T05:54:44;34.33;;;11.95;;
35835;SDS011;21955;50.580;7.228;2022-12-18T05:57:12;39.10;;;12.10;;
35835;SDS011;21955;50.580;7.228;2022-12-18T05:59:39;38.97;;;13.32;;
35835;SDS011;21955;50.580;7.228;2022-12-18T06:02:06;38.72;;;12.90;;
35835;SDS011;21955;50.580;7.228;2022-12-18T06:04:34;34.75;;;12.30;;
35835;SDS011;21955;50.580;7.228;2022-12-18T06:07:02;34.88;;;12.45;;
35835;SDS011;21955;50.580;7.228;2022-12-18T06:09:29;39.70;;;13.10;;
35835;SDS011;21955;50.580;7.228;2022-12-18T06:11:57;39.58;;;12.13;;
35835;SDS011;21955;50.580;7.228;2022-12-18T06:14:24;35.78;;;12.57;;
35835;SDS011;21955;50.580;7.228;2022-12-18T06:16:51;37.58;;;12.57;;
35835;SDS011;21955;50.580;7.228;2022-12-18T06:19:18;38.30;;;12.63;;
35835;SDS011;21955;50.580;7.228;2022-12-18T06:21:45;36.08;;;14.00;;
35835;SDS011;21955;50.580;7.228;2022-12-18T06:24:15;36.83;;;12.73;;
35835;SDS011;21955;50.580;7.228;2022-12-18T06:26:42;39.70;;;12.77;;
35835;SDS011;21955;50.580;7.228;2022-12-18T06:29:09;41.05;;;13.13;;
35835;SDS011;21955;50.580;7.228;2022-12-18T06:31:36;37.50;;;12.63;;
35835;SDS011;21955;50.580;7.228;2022-12-18T06:34:04;33.17;;;12.82;;
35835;SDS011;21955;50.580;7.228;2022-12-18T06:36:31;31.35;;;12.38;;
35835;SDS011;21955;50.580;7.228;2022-12-18T06:38:58;35.80;;;13.07;;
35835;SDS011;21955;50.580;7.228;2022-12-18T06:41:27;36.55;;;12.60;;
35835;SDS011;21955;50.580;7.228;2022-12-18T06:43:54;37.25;;;12.73;;
35835;SDS011;21955;50.580;7.228;2022-12-18T06:46:21;35.33;;;12.00;;
35835;SDS011;21955;50.580;7.228;2022-12-18T06:48:49;39.20;;;13.52;;
35835;SDS011;21955;50.580;7.228;2022-12-18T06:51:19;36.00;;;12.77;;
35835;SDS011;21955;50.580;7.228;2022-12-18T06:53:47;38.50;;;12.85;;
35835;SDS011;21955;50.580;7.228;2022-12-18T06:56:14;38.97;;;13.40;;
35835;SDS011;21955;50.580;7.228;2022-12-18T06:58:43;34.42;;;12.02;;
35835;SDS011;21955;50.580;7.228;2022-12-18T07:01:11;37.03;;;13.18;;
35835;SDS011;21955;50.580;7.228;2022-12-18T07:03:39;38.90;;;13.02;;
35835;SDS011;21955;50.580;7.228;2022-12-18T07:06:11;33.50;;;11.80;;
35835;SDS011;21955;50.580;7.228;2022-12-18T07:08:39;38.13;;;13.15;;
35835;SDS011;21955;50.580;7.228;2022-12-18T07:11:06;34.25;;;12.45;;
35835;SDS011;21955;50.580;7.228;2022-12-18T07:13:33;34.08;;;12.55;;
35835;SDS011;21955;50.580;7.228;2022-12-18T07:16:06;33.57;;;12.50;;
35835;SDS011;21955;50.580;7.228;2022-12-18T07:18:34;40.85;;;12.90;;
35835;SDS011;21955;50.580;7.228;2022-12-18T07:21:04;39.13;;;13.45;;
35835;SDS011;21955;50.580;7.228;2022-12-18T07:23:31;41.30;;;14.30;;
35835;SDS011;21955;50.580;7.228;2022-12-18T07:26:00;38.47;;;12.73;;
35835;SDS011;21955;50.580;7.228;2022-12-18T07:28:27;34.10;;;12.15;;
35835;SDS011;21955;50.580;7.228;2022-12-18T07:30:54;35.38;;;12.15;;
35835;SDS011;21955;50.580;7.228;2022-12-18T07:33:23;40.67;;;13.07;;
35835;SDS011;21955;50.580;7.228;2022-12-18T07:35:50;38.58;;;13.23;;
35835;SDS011;21955;50.580;7.228;2022-12-18T07:38:18;37.75;;;13.07;;
35835;SDS011;21955;50.580;7.228;2022-12-18T07:40:45;38.97;;;13.23;;
35835;SDS011;21955;50.580;7.228;2022-12-18T07:43:12;38.40;;;13.55;;
35835;SDS011;21955;50.580;7.228;2022-12-18T07:45:39;30.15;;;10.32;;
35835;SDS011;21955;50.580;7.228;2022-12-18T07:48:06;39.35;;;14.02;;
35835;SDS011;21955;50.580;7.228;2022-12-18T07:50:35;39.65;;;12.40;;
35835;SDS011;21955;50.580;7.228;2022-12-18T07:53:02;37.13;;;13.05;;
35835;SDS011;21955;50.580;7.228;2022-12-18T07:55:30;38.78;;;14.10;;
35835;SDS011;21955;50.580;7.228;2022-12-18T07:58:00;34.80;;;12.55;;
35835;SDS011;21955;50.580;7.228;2022-12-18T08:00:27;36.92;;;13.98;;
35835;SDS011;21955;50.580;7.228;2022-12-18T08:02:54;40.20;;;13.90;;
35835;SDS011;21955;50.580;7.228;2022-12-18T08:05:21;36.30;;;12.30;;
35835;SDS011;21955;50.580;7.228;2022-12-18T08:07:50;41.15;;;14.20;;
35835;SDS011;21955;50.580;7.228;2022-12-18T08:10:17;36.90;;;13.38;;
35835;SDS011;21955;50.580;7.228;2022-12-18T08:12:45;37.05;;;12.48;;
35835;SDS011;21955;50.580;7.228;2022-12-18T08:15:14;35.92;;;12.90;;
35835;SDS011;21955;50.580;7.228;2022-12-18T08:17:41;40.38;;;13.25;;
35835;SDS011;21955;50.580;7.228;2022-12-18T08:20:09;32.85;;;11.80;;
35835;SDS011;21955;50.580;7.228;2022-12-18T08:22:36;36.63;;;13.93;;
35835;SDS011;21955;50.580;7.228;2022-12-18T08:25:06;35.33;;;13.10;;
35835;SDS011;21955;50.580;7.228;2022-12-18T08:27:33;32.80;;;12.33;;
35835;SDS011;21955;50.580;7.228;2022-12-18T08:30:01;29.15;;;10.38;;
35835;SDS011;21955;50.580;7.228;2022-12-18T08:32:28;33.63;;;11.57;;
35835;SDS011;21955;50.580;7.228;2022-12-18T08:34:55;38.75;;;12.60;;
35835;SDS011;21955;50.580;7.228;2022-12-18T08:37:22;27.48;;;9.55;;
35835;SDS011;21955;50.580;7.228;2022-12-18T08:39:50;40.67;;;13.43;;
35835;SDS011;21955;50.580;7.228;2022-12-18T08:42:18;35.75;;;12.10;;
35835;SDS011;21955;50.580;7.228;2022-12-18T08:45:03;34.20;;;12.20;;
35835;SDS011;21955;50.580;7.228;2022-12-18T08:47:30;35.85;;;11.82;;
35835;SDS011;21955;50.580;7.228;2022-12-18T08:49:57;35.07;;;12.80;;
35835;SDS011;21955;50.580;7.228;2022-12-18T08:52:25;44.88;;;12.98;;
35835;SDS011;21955;50.580;7.228;2022-12-18T08:54:53;35.40;;;12.63;;
35835;SDS011;21955;50.580;7.228;2022-12-18T08:57:22;36.50;;;11.93;;
35835;SDS011;21955;50.580;7.228;2022-12-18T08:59:49;36.38;;;12.68;;
35835;SDS011;21955;50.580;7.228;2022-12-18T09:02:16;28.33;;;10.23;;
35835;SDS011;21955;50.580;7.228;2022-12-18T09:04:46;33.10;;;12.18;;
35835;SDS011;21955;50.580;7.228;2022-12-18T09:07:13;33.47;;;12.23;;
35835;SDS011;21955;50.580;7.228;2022-12-18T09:09:40;38.80;;;17.10;;
35835;SDS011;21955;50.580;7.228;2022-12-18T09:12:08;38.40;;;14.23;;
35835;SDS011;21955;50.580;7.228;2022-12-18T09:14:36;37.95;;;14.18;;
35835;SDS011;21955;50.580;7.228;2022-12-18T09:17:03;36.17;;;13.90;;
35835;SDS011;21955;50.580;7.228;2022-12-18T09:19:31;37.55;;;13.77;;
35835;SDS011;21955;50.580;7.228;2022-12-18T09:21:58;32.72;;;12.13;;
35835;SDS011;21955;50.580;7.228;2022-12-18T09:24:25;35.30;;;13.63;;
35835;SDS011;21955;50.580;7.228;2022-12-18T09:26:53;38.90;;;12.93;;
35835;SDS011;21955;50.580;7.228;2022-12-18T09:29:20;35.00;;;13.13;;
35835;SDS011;21955;50.580;7.228;2022-12-18T09:31:49;38.47;;;14.32;;
35835;SDS011;21955;50.580;7.228;2022-12-18T09:34:16;35.42;;;13.32;;
35835;SDS011;21955;50.580;7.228;2022-12-18T09:36:46;38.38;;;14.10;;
35835;SDS011;21955;50.580;7.228;2022-12-18T09:39:13;32.15;;;12.05;;
35835;SDS011;21955;50.580;7.228;2022-12-18T09:41:44;39.22;;;13.30;;
35835;SDS011;21955;50.580;7.228;2022-12-18T09:44:22;28.90;;;11.23;;
35835;SDS011;21955;50.580;7.228;2022-12-18T09:46:53;32.13;;;12.25;;
35835;SDS011;21955;50.580;7.228;2022-12-18T09:49:22;36.03;;;12.70;;
35835;SDS011;21955;50.580;7.228;2022-12-18T09:51:50;34.63;;;13.20;;
35835;SDS011;21955;50.580;7.228;2022-12-18T09:54:22;31.25;;;12.05;;
35835;SDS011;21955;50.580;7.228;2022-12-18T09:56:51;33.17;;;13.25;;
35835;SDS011;21955;50.580;7.228;2022-12-18T09:59:21;31.90;;;12.32;;
35835;SDS011;21955;50.580;7.228;2022-12-18T10:01:50;30.90;;;11.60;;
35835;SDS011;21955;50.580;7.228;2022-12-18T10:04:19;36.83;;;13.30;;
35835;SDS011;21955;50.580;7.228;2022-12-18T10:06:48;38.03;;;13.20;;
35835;SDS011;21955;50.580;7.228;2022-12-18T10:09:19;34.27;;;12.83;;
35835;SDS011;21955;50.580;7.228;2022-12-18T10:11:48;36.90;;;14.57;;
35835;SDS011;21955;50.580;7.228;2022-12-18T10:14:21;35.50;;;13.38;;
35835;SDS011;21955;50.580;7.228;2022-12-18T10:16:53;34.58;;;13.73;;
35835;SDS011;21955;50.580;7.228;2022-12-18T10:19:30;35.67;;;13.27;;
35835;SDS011;21955;50.580;7.228;2022-12-18T10:22:01;34.33;;;13.98;;
35835;SDS011;21955;50.580;7.228;2022-12-18T10:24:32;30.73;;;12.35;;
35835;SDS011;21955;50.580;7.228;2022-12-18T10:27:04;33.53;;;12.30;;
35835;SDS011;21955;50.580;7.228;2022-12-18T10:29:36;33.88;;;12.35;;
35835;SDS011;21955;50.580;7.228;2022-12-18T10:32:03;31.95;;;11.25;;
35835;SDS011;21955;50.580;7.228;2022-12-18T10:34:31;37.35;;;14.50;;
35835;SDS011;21955;50.580;7.228;2022-12-18T10:36:59;31.00;;;10.52;;
35835;SDS011;21955;50.580;7.228;2022-12-18T10:39:27;35.83;;;14.48;;
35835;SDS011;21955;50.580;7.228;2022-12-18T10:41:59;33.55;;;12.30;;
35835;SDS011;21955;50.580;7.228;2022-12-18T10:44:35;32.83;;;12.48;;
35835;SDS011;21955;50.580;7.228;2022-12-18T10:47:04;34.40;;;13.27;;
35835;SDS011;21955;50.580;7.228;2022-12-18T10:49:33;31.73;;;12.93;;
35835;SDS011;21955;50.580;7.228;2022-12-18T10:52:05;28.52;;;10.35;;
35835;SDS011;21955;50.580;7.228;2022-12-18T10:54:34;33.10;;;12.95;;
35835;SDS011;21955;50.580;7.228;2022-12-18T10:57:13;32.35;;;12.50;;
35835;SDS011;21955;50.580;7.228;2022-12-18T10:59:49;35.17;;;12.90;;
35835;SDS011;21955;50.580;7.228;2022-12-18T11:02:24;40.85;;;15.15;;
35835;SDS011;21955;50.580;7.228;2022-12-18T11:04:54;41.22;;;14.88;;
35835;SDS011;21955;50.580;7.228;2022-12-18T11:07:21;36.47;;;13.85;;
35835;SDS011;21955;50.580;7.228;2022-12-18T11:09:59;33.20;;;13.50;;
35835;SDS011;21955;50.580;7.228;2022-12-18T11:12:30;32.33;;;12.63;;
35835;SDS011;21955;50.580;7.228;2022-12-18T11:14:57;31.63;;;12.50;;
35835;SDS011;21955;50.580;7.228;2022-12-18T11:17:28;36.42;;;14.00;;
35835;SDS011;21955;50.580;7.228;2022-12-18T11:19:57;34.42;;;13.50;;
35835;SDS011;21955;50.580;7.228;2022-12-18T11:22:25;27.67;;;11.90;;
35835;SDS011;21955;50.580;7.228;2022-12-18T11:24:54;33.97;;;13.17;;
35835;SDS011;21955;50.580;7.228;2022-12-18T11:27:22;32.97;;;13.07;;
35835;SDS011;21955;50.580;7.228;2022-12-18T11:29:49;37.05;;;13.40;;
35835;SDS011;21955;50.580;7.228;2022-12-18T11:32:25;35.60;;;14.03;;
35835;SDS011;21955;50.580;7.228;2022-12-18T11:34:57;34.25;;;13.75;;
35835;SDS011;21955;50.580;7.228;2022-12-18T11:37:26;32.17;;;12.25;;
35835;SDS011;21955;50.580;7.228;2022-12-18T11:39:55;35.40;;;13.85;;
35835;SDS011;21955;50.580;7.228;2022-12-18T11:42:27;36.70;;;14.33;;
35835;SDS011;21955;50.580;7.228;2022-12-18T11:44:55;33.03;;;13.77;;
35835;SDS011;21955;50.580;7.228;2022-12-18T11:47:25;31.08;;;11.10;;
35835;SDS011;21955;50.580;7.228;2022-12-18T11:49:54;30.93;;;11.67;;
35835;SDS011;21955;50.580;7.228;2022-12-18T11:52:25;31.63;;;13.20;;
35835;SDS011;21955;50.580;7.228;2022-12-18T11:54:54;45.60;;;16.42;;
35835;SDS011;21955;50.580;7.228;2022-12-18T11:57:25;32.17;;;12.68;;
35835;SDS011;21955;50.580;7.228;2022-12-18T12:00:01;35.10;;;13.70;;
35835;SDS011;21955;50.580;7.228;2022-12-18T12:02:37;31.02;;;12.27;;
35835;SDS011;21955;50.580;7.228;2022-12-18T12:07:58;35.35;;;13.52;;
35835;SDS011;21955;50.580;7.228;2022-12-18T12:10:32;32.67;;;13.48;;
35835;SDS011;21955;50.580;7.228;2022-12-18T12:13:14;39.38;;;14.70;;
35835;SDS011;21955;50.580;7.228;2022-12-18T12:15:44;32.03;;;12.30;;
35835;SDS011;21955;50.580;7.228;2022-12-18T12:18:17;30.52;;;12.50;;
35835;SDS011;21955;50.580;7.228;2022-12-18T12:20:49;22.77;;;9.37;;
35835;SDS011;21955;50.580;7.228;2022-12-18T12:23:22;34.28;;;12.80;;
35835;SDS011;21955;50.580;7.228;2022-12-18T12:25:53;30.05;;;11.57;;
35835;SDS011;21955;50.580;7.228;2022-12-18T12:28:27;36.67;;;11.60;;
35835;SDS011;21955;50.580;7.228;2022-12-18T12:31:00;31.53;;;12.37;;
35835;SDS011;21955;50.580;7.228;2022-12-18T12:33:34;36.30;;;13.67;;
35835;SDS011;21955;50.580;7.228;2022-12-18T12:36:05;34.63;;;13.05;;
35835;SDS011;21955;50.580;7.228;2022-12-18T12:38:36;31.95;;;13.80;;
35835;SDS011;21955;50.580;7.228;2022-12-18T12:41:04;34.67;;;13.23;;
35835;SDS011;21955;50.580;7.228;2022-12-18T12:43:53;34.00;;;12.65;;
35835;SDS011;21955;50.580;7.228;2022-12-18T12:46:21;34.20;;;13.38;;
35835;SDS011;21955;50.580;7.228;2022-12-18T12:48:49;37.30;;;14.43;;
35835;SDS011;21955;50.580;7.228;2022-12-18T12:51:20;37.92;;;16.40;;
35835;SDS011;21955;50.580;7.228;2022-12-18T12:53:51;36.63;;;16.48;;
35835;SDS011;21955;50.580;7.228;2022-12-18T12:56:20;39.83;;;17.75;;
35835;SDS011;21955;50.580;7.228;2022-12-18T12:58:56;34.45;;;14.48;;
35835;SDS011;21955;50.580;7.228;2022-12-18T13:01:26;34.85;;;14.27;;
35835;SDS011;21955;50.580;7.228;2022-12-18T13:04:00;36.15;;;17.27;;
35835;SDS011;21955;50.580;7.228;2022-12-18T13:06:33;38.93;;;14.57;;
35835;SDS011;21955;50.580;7.228;2022-12-18T13:09:04;40.13;;;17.53;;
35835;SDS011;21955;50.580;7.228;2022-12-18T13:11:35;38.28;;;18.30;;
35835;SDS011;21955;50.580;7.228;2022-12-18T13:14:21;37.22;;;17.00;;
35835;SDS011;21955;50.580;7.228;2022-12-18T13:16:49;39.28;;;16.65;;
35835;SDS011;21955;50.580;7.228;2022-12-18T13:19:21;38.78;;;17.27;;
35835;SDS011;21955;50.580;7.228;2022-12-18T13:21:52;37.22;;;16.50;;
35835;SDS011;21955;50.580;7.228;2022-12-18T13:24:24;38.58;;;17.55;;
35835;SDS011;21955;50.580;7.228;2022-12-18T13:26:52;39.00;;;17.52;;
35835;SDS011;21955;50.580;7.228;2022-12-18T13:32:16;38.72;;;17.45;;
35835;SDS011;21955;50.580;7.228;2022-12-18T13:34:46;38.42;;;16.60;;
35835;SDS011;21955;50.580;7.228;2022-12-18T13:40:00;38.97;;;17.42;;
35835;SDS011;21955;50.580;7.228;2022-12-18T13:42:31;40.50;;;19.00;;
35835;SDS011;21955;50.580;7.228;2022-12-18T13:45:36;40.57;;;18.60;;
35835;SDS011;21955;50.580;7.228;2022-12-18T13:48:04;42.63;;;19.58;;
35835;SDS011;21955;50.580;7.228;2022-12-18T13:50:32;40.80;;;17.77;;
35835;SDS011;21955;50.580;7.228;2022-12-18T13:53:00;42.40;;;18.80;;
35835;SDS011;21955;50.580;7.228;2022-12-18T13:55:28;42.30;;;19.08;;
35835;SDS011;21955;50.580;7.228;2022-12-18T13:58:02;42.17;;;19.48;;
35835;SDS011;21955;50.580;7.228;2022-12-18T14:00:30;44.47;;;19.38;;
35835;SDS011;21955;50.580;7.228;2022-12-18T14:02:57;38.92;;;18.38;;
35835;SDS011;21955;50.580;7.228;2022-12-18T14:05:26;44.10;;;19.57;;
35835;SDS011;21955;50.580;7.228;2022-12-18T14:07:54;41.90;;;18.27;;
35835;SDS011;21955;50.580;7.228;2022-12-18T14:10:26;39.13;;;17.15;;
35835;SDS011;21955;50.580;7.228;2022-12-18T14:12:54;42.37;;;19.53;;
35835;SDS011;21955;50.580;7.228;2022-12-18T14:15:26;44.97;;;19.88;;
35835;SDS011;21955;50.580;7.228;2022-12-18T14:17:58;42.90;;;19.13;;
35835;SDS011;21955;50.580;7.228;2022-12-18T14:20:26;46.63;;;19.42;;
35835;SDS011;21955;50.580;7.228;2022-12-18T14:22:54;41.97;;;18.35;;
35835;SDS011;21955;50.580;7.228;2022-12-18T14:25:23;45.25;;;19.77;;
35835;SDS011;21955;50.580;7.228;2022-12-18T14:27:51;42.97;;;19.00;;
35835;SDS011;21955;50.580;7.228;2022-12-18T14:33:03;42.85;;;19.30;;
35835;SDS011;21955;50.580;7.228;2022-12-18T14:35:30;43.58;;;18.92;;
35835;SDS011;21955;50.580;7.228;2022-12-18T14:38:10;41.17;;;17.98;;
35835;SDS011;21955;50.580;7.228;2022-12-18T14:40:38;43.47;;;19.02;;
35835;SDS011;21955;50.580;7.228;2022-12-18T14:43:05;45.33;;;19.50;;
35835;SDS011;21955;50.580;7.228;2022-12-18T14:45:33;45.58;;;19.48;;
35835;SDS011;21955;50.580;7.228;2022-12-18T14:48:07;44.58;;;19.23;;